world map with LPPR marked

LPPR - Airport

This information may not be accurate or current and is not valid for navigation or flight planning. No warranty of fitness for any purpose is made or implied.

flag of Portugal

Donate via PayPal

Additional information is available on the NEW Great Circle Mapper

Location
City:  Porto, Porto, Portugal
Name:Francisco Sá Carneiro
ICAO / IATA:LPPR / OPO

Details
Type:Airport (Aerodrome, Airfield)
Use:Public/Civil
Latitude:41°14'53"N (41.248055)
Longitude:8°40'53"W (-8.681388)
Datum:WGS 1984
Elevation:228 ft (69 m)
Runways:1
Longest:11417 × 148 ft (3480 × 45 m)

Time
Timezone:UTC+0 (DST+3)
Local Time:

Weather
METAR:LPPR  041400Z 25005KT 200V290 CAVOK 13/04 Q1030
TAF:LPPR  041100Z 0412/0512 09005KT CAVOK BECMG 0412/0414 VRB03KT BECMG 0500/0503 09005KT

Related Locations
Nearby:
Farthest:NZKM: 12401 mi / 19957 km
Karamea, WTC, NZ

Find:

   beyond  
but within

Other Information
Maps:
Sources:

  


 


Great Circle Mapper   Great Circle Mapper
Great Circle Mapper FAQ   Great Circle Mapper FAQ
  Karl's Home Page
KLS˛   KLS˛ Home
   GC on Facebook
Airlines of the World   Airlines of the World
Donate via PayPal


Copyright © 2004-2019, Karl L. Swartz. All rights reserved.
All trademarks mentioned herein belong to their respective owners.

Please see credits for attribution and copyright information.

Karl Swartz <karl@kls2.com>
  Powered by FreeBSD
Valid HTML 4.01!
Labeled with ICRA
hCard Microformat
Geo Microformat